Terminal Aerodrome Forecast
Issued by NWS

Home | Current Version | Previous Version | Text Only | Print | Product List | Glossary On
Versions: 1 2 3 4 5 6 7 8 9 10 11 12 13 14 15 16 17 18 19 20 21 22
000
FTUS43 KICT 232321
TAFCNU
TAF
KCNU 232321Z 2400/2424 33024G33KT P6SM -RA SCT015 OVC025
      TEMPO 2400/2402 OVC015
     FM240500 31017G24KT P6SM SCT060 BKN100
     FM240900 29014KT P6SM BKN040=

USA.gov is the U.S. government's official web portal to all federal, state and local government web resources and services.